FRA weather

Frankfurt am Main Airport
Frankfurt am Main, Hesse, Germany

Public forecast

Using degrees Celsius for public forecast. Weather courtesy of forecast.io.

METAR (pilot weather report)

Retrieved 2018/05/23 06:20 UTC (25 minutes ago):

EDDF 230620Z VRB02KT 9999 VCSH SCT050TCU BKN090 15/14 Q1017 NOSIG

TAF (pilot weather forecast)

Retrieved 2018/05/23 06:28 UTC (17 minutes ago):

TAF EDDF 230500Z 2306/2412 04004KT CAVOK BECMG 2310/2312 04009KT PROB30 TEMPO 2314/2318 TSRA SCT045CB PROB40 TEMPO 2406/2412 4000 TSRA BKN030CB